Time;durP1;ratioP1;P1;durP2;ratioP2;P2;SDS_P1;SDS_P2;PMS_P1;PMS_P2;Temp;Humidity;BMP_temperature;BMP_pressure;BME280_temperature;BME280_humidity;BME280_pressure;Samples;Min_cycle;Max_cycle;Signal;HPM_P1;HPM_P2
2022/02/01 00:00:44;;;;;;;9.83;4.57;;;7.60;99.90;;;;;;5053361;28;20205;-65
2022/02/01 00:03:15;;;;;;;16.57;5.10;;;7.40;99.90;;;;;;5054581;28;20399;-65
2022/02/01 00:08:42;;;;;;;9.63;3.97;;;7.40;99.90;;;;;;5052839;28;20434;-66
2022/02/01 00:37:58;;;;;;;11.20;3.30;;;7.20;99.90;;;;;;5021899;28;20413;-71
2022/02/01 00:40:25;;;;;;;10.60;4.00;;;7.20;99.70;;;;;;5054512;28;20414;-65
2022/02/01 00:42:51;;;;;;;11.20;3.73;;;7.20;99.60;;;;;;5054044;28;20440;-68
2022/02/01 00:45:16;;;;;;;9.30;3.63;;;7.20;99.10;;;;;;5071866;28;20430;-65
2022/02/01 00:47:43;;;;;;;10.97;3.60;;;7.20;99.50;;;;;;5072809;28;20641;-65
2022/02/01 00:50:13;;;;;;;10.33;3.97;;;7.10;99.50;;;;;;5073061;28;20187;-65
2022/02/01 00:52:39;;;;;;;15.57;4.30;;;7.10;99.90;;;;;;5074344;28;20866;-65
2022/02/01 00:55:05;;;;;;;7.97;4.23;;;7.10;99.70;;;;;;5072079;28;20543;-65
2022/02/01 00:57:31;;;;;;;9.60;3.83;;;7.00;99.70;;;;;;5070522;28;20808;-65
2022/02/01 00:59:57;;;;;;;9.57;3.70;;;6.90;99.90;;;;;;5053409;28;20421;-65
2022/02/01 01:02:23;;;;;;;9.70;3.70;;;6.90;99.40;;;;;;5054011;28;20187;-65
2022/02/01 01:04:48;;;;;;;12.77;4.87;;;6.90;99.90;;;;;;5054647;28;20227;-70
2022/02/01 01:07:14;;;;;;;13.87;4.33;;;6.90;99.90;;;;;;5072223;28;20182;-65
2022/02/01 01:09:40;;;;;;;12.23;4.37;;;6.90;99.90;;;;;;5073224;28;20187;-65
2022/02/01 01:12:06;;;;;;;8.93;3.57;;;6.90;99.90;;;;;;5064455;28;20188;-65
2022/02/01 01:44:46;;;;;;;12.70;4.57;;;6.80;99.90;;;;;;5033309;28;20443;-65
2022/02/01 01:55:38;;;;;;;13.50;3.80;;;6.80;99.90;;;;;;5033087;28;20501;-65
2022/02/01 01:58:05;;;;;;;14.80;4.57;;;6.80;99.90;;;;;;5040186;28;20775;-65
2022/02/01 02:00:51;;;;;;;12.90;3.67;;;6.80;99.90;;;;;;5053001;28;20820;-65
2022/02/01 02:03:17;;;;;;;11.77;4.27;;;6.70;99.90;;;;;;5052272;28;20509;-65
2022/02/01 02:05:43;;;;;;;9.30;3.90;;;6.80;99.90;;;;;;5039998;28;20525;-65
2022/02/01 02:08:09;;;;;;;11.20;4.17;;;6.80;99.90;;;;;;5031645;28;20492;-65
2022/02/01 02:10:37;;;;;;;13.20;4.33;;;6.80;99.90;;;;;;5026324;28;20188;-65
2022/02/01 02:14:18;;;;;;;7.47;3.80;;;6.90;99.90;;;;;;5051192;28;20436;-65
2022/02/01 02:16:01;;;;;;;9.67;4.17;;;6.90;99.90;;;;;;5041044;28;20439;-65
2022/02/01 02:18:33;;;;;;;11.27;4.03;;;6.90;99.90;;;;;;5015160;28;20775;-65
2022/02/01 02:21:04;;;;;;;8.50;3.43;;;6.80;99.90;;;;;;5031218;28;20565;-66
2022/02/01 02:23:30;;;;;;;7.43;3.20;;;6.90;99.90;;;;;;5032178;28;20784;-65
2022/02/01 02:25:56;;;;;;;8.67;3.57;;;6.90;99.90;;;;;;5031752;28;20443;-71
2022/02/01 02:28:24;;;;;;;12.53;4.20;;;6.90;99.90;;;;;;5032264;28;20180;-65
2022/02/01 02:30:52;;;;;;;7.07;3.43;;;6.90;99.90;;;;;;5032409;28;20393;-65
2022/02/01 02:33:19;;;;;;;11.07;3.63;;;6.90;99.90;;;;;;5031203;28;20561;-65
2022/02/01 02:36:08;;;;;;;11.03;4.00;;;6.90;99.90;;;;;;5032305;28;20462;-65
2022/02/01 02:46:25;;;;;;;6.27;3.23;;;6.90;99.90;;;;;;5041499;28;20413;-65
2022/02/01 02:48:51;;;;;;;7.13;3.60;;;7.00;99.90;;;;;;5052145;28;20890;-65
2022/02/01 02:51:18;;;;;;;9.30;4.00;;;7.00;99.90;;;;;;5051344;28;20411;-65
2022/02/01 02:53:44;;;;;;;6.90;4.10;;;7.20;99.90;;;;;;5051705;28;20497;-65
2022/02/01 02:56:10;;;;;;;6.87;3.70;;;7.00;99.90;;;;;;5051057;28;20449;-65
2022/02/01 02:58:36;;;;;;;10.50;4.23;;;7.00;99.90;;;;;;5052076;28;20180;-64
2022/02/01 03:01:02;;;;;;;12.17;4.10;;;6.70;99.90;;;;;;5051257;28;20624;-65
2022/02/01 03:03:27;;;;;;;13.50;3.97;;;6.90;99.90;;;;;;5051987;28;20184;-65
2022/02/01 03:05:53;;;;;;;12.70;4.00;;;6.90;99.90;;;;;;5050429;28;20432;-64
2022/02/01 03:08:19;;;;;;;6.30;4.03;;;7.00;99.90;;;;;;5023669;28;20190;-65
2022/02/01 03:10:45;;;;;;;10.80;4.30;;;7.00;99.90;;;;;;5032098;28;20270;-64
2022/02/01 03:13:16;;;;;;;9.33;3.80;;;7.00;99.90;;;;;;4997013;28;20518;-65
2022/02/01 03:15:51;;;;;;;8.47;4.10;;;7.00;99.90;;;;;;5040484;28;20840;-65
2022/02/01 03:21:00;;;;;;;6.63;3.90;;;6.90;99.90;;;;;;5050833;28;20462;-66
2022/02/01 03:23:26;;;;;;;15.00;4.00;;;6.90;99.90;;;;;;5042608;28;20428;-65
2022/02/01 03:25:52;;;;;;;6.00;3.93;;;6.90;99.90;;;;;;5049956;28;20194;-65
2022/02/01 03:28:18;;;;;;;6.70;3.90;;;6.90;99.90;;;;;;5050973;28;20201;-65
2022/02/01 03:30:43;;;;;;;11.17;4.07;;;7.10;99.90;;;;;;5034753;28;20644;-65
2022/02/01 03:33:09;;;;;;;7.77;3.90;;;6.70;99.90;;;;;;5036817;28;20572;-65
2022/02/01 03:35:35;;;;;;;4.73;3.37;;;6.90;99.90;;;;;;5053717;28;20263;-65
2022/02/01 03:38:02;;;;;;;7.80;4.07;;;6.90;99.90;;;;;;5054947;28;20199;-70
2022/02/01 03:40:28;;;;;;;6.40;3.70;;;6.90;99.90;;;;;;5055331;28;20272;-64
2022/02/01 03:42:54;;;;;;;7.57;4.30;;;6.80;99.90;;;;;;5024876;28;20914;-65
2022/02/01 03:45:19;;;;;;;8.73;4.10;;;6.80;99.90;;;;;;5034283;28;20426;-65
2022/02/01 03:47:45;;;;;;;8.50;4.00;;;6.80;99.90;;;;;;5034964;28;20268;-64
2022/02/01 03:50:11;;;;;;;13.90;5.20;;;6.80;99.90;;;;;;5034236;28;20176;-65
2022/02/01 03:52:36;;;;;;;8.57;3.97;;;6.80;99.90;;;;;;5035361;28;20233;-65
2022/02/01 03:55:04;;;;;;;8.00;4.40;;;6.50;99.90;;;;;;5034428;28;20234;-66
2022/02/01 03:57:29;;;;;;;9.27;4.03;;;6.90;99.90;;;;;;5035255;28;20186;-64
2022/02/01 03:59:55;;;;;;;9.73;4.30;;;6.90;99.90;;;;;;5035223;28;20895;-65
2022/02/01 04:02:21;;;;;;;9.73;4.23;;;7.00;99.90;;;;;;5034424;28;20250;-64
2022/02/01 04:04:53;;;;;;;7.60;4.23;;;7.10;99.90;;;;;;5034827;28;20629;-65
2022/02/01 04:07:19;;;;;;;8.10;4.00;;;7.00;99.90;;;;;;5034074;28;20172;-65
2022/02/01 04:09:45;;;;;;;11.33;4.87;;;7.00;99.90;;;;;;5035111;28;20423;-65
2022/02/01 04:12:11;;;;;;;8.00;4.30;;;6.80;99.90;;;;;;5034134;28;20419;-64
2022/02/01 04:14:37;;;;;;;11.40;3.93;;;7.00;99.90;;;;;;5034821;28;20485;-65
2022/02/01 04:17:07;;;;;;;9.20;3.97;;;7.20;99.90;;;;;;5016315;28;20516;-70
2022/02/01 04:19:34;;;;;;;8.53;3.83;;;7.20;99.90;;;;;;5017069;28;20922;-65
2022/02/01 04:22:01;;;;;;;11.47;4.57;;;7.10;99.90;;;;;;5034207;28;20569;-70
2022/02/01 04:24:35;;;;;;;4.70;3.90;;;7.10;99.90;;;;;;5034461;28;20427;-65
2022/02/01 04:27:02;;;;;;;9.03;4.27;;;7.10;99.90;;;;;;5034414;28;20399;-71
2022/02/01 04:29:28;;;;;;;9.30;4.60;;;7.20;99.90;;;;;;5034422;28;20431;-65
2022/02/01 04:31:54;;;;;;;6.53;3.90;;;7.20;99.90;;;;;;5034422;28;20427;-65
2022/02/01 04:34:20;;;;;;;9.53;4.33;;;7.20;99.90;;;;;;5033695;28;21083;-65
2022/02/01 04:36:46;;;;;;;10.10;3.30;;;7.10;99.90;;;;;;5034547;28;20250;-65
2022/02/01 04:39:11;;;;;;;7.20;3.87;;;7.00;99.90;;;;;;5033733;28;20239;-65
2022/02/01 04:41:38;;;;;;;6.63;3.23;;;7.00;99.90;;;;;;5034344;28;20424;-64
2022/02/01 04:44:04;;;;;;;8.80;3.80;;;7.10;99.90;;;;;;5032986;28;20450;-70
2022/02/01 04:46:30;;;;;;;7.10;3.60;;;7.10;99.90;;;;;;5034117;28;20561;-64
2022/02/01 04:49:06;;;;;;;6.70;3.47;;;7.00;99.90;;;;;;5016321;28;20510;-64
2022/02/01 04:51:31;;;;;;;8.73;3.37;;;7.00;99.90;;;;;;5034604;28;20437;-64
2022/02/01 04:53:57;;;;;;;8.40;4.13;;;7.10;99.90;;;;;;5032196;28;20458;-65
2022/02/01 04:56:24;;;;;;;7.03;3.90;;;7.00;99.90;;;;;;5015392;28;20185;-65
2022/02/01 04:58:50;;;;;;;10.00;3.90;;;7.00;99.90;;;;;;5034246;28;20846;-65
2022/02/01 05:01:17;;;;;;;9.90;4.40;;;7.00;99.90;;;;;;5033302;28;20494;-64
2022/02/01 05:03:43;;;;;;;7.70;4.37;;;6.60;99.90;;;;;;5016066;28;20433;-65
2022/02/01 05:06:13;;;;;;;7.10;3.47;;;7.00;99.90;;;;;;5033243;28;20839;-65
2022/02/01 05:08:40;;;;;;;8.70;4.97;;;7.00;99.90;;;;;;5016343;28;20192;-64
2022/02/01 05:11:06;;;;;;;5.87;4.80;;;7.00;99.90;;;;;;5015536;28;20405;-71
2022/02/01 05:16:12;;;;;;;8.20;4.40;;;7.00;99.90;;;;;;5033445;28;20411;-64
2022/02/01 05:18:47;;;;;;;12.13;4.50;;;7.00;99.90;;;;;;5033568;28;20820;-64
2022/02/01 05:21:21;;;;;;;7.80;4.87;;;6.90;99.90;;;;;;5024925;28;20444;-64
2022/02/01 05:23:48;;;;;;;12.73;5.47;;;7.00;99.90;;;;;;5053497;28;20801;-64
2022/02/01 05:26:15;;;;;;;9.33;4.90;;;6.90;99.90;;;;;;5052505;28;20425;-65
2022/02/01 05:28:41;;;;;;;7.63;4.70;;;6.90;99.90;;;;;;5051896;28;20426;-65
2022/02/01 05:31:07;;;;;;;7.83;4.30;;;7.00;99.90;;;;;;5053053;28;20521;-70
2022/02/01 05:33:33;;;;;;;14.63;4.43;;;7.00;99.90;;;;;;5051897;28;21018;-65
2022/02/01 05:36:01;;;;;;;6.63;4.20;;;6.90;99.90;;;;;;5053574;28;20414;-65
2022/02/01 05:38:27;;;;;;;12.63;4.67;;;7.10;99.90;;;;;;5052191;28;20172;-64
2022/02/01 05:40:52;;;;;;;11.70;4.63;;;6.90;99.90;;;;;;5053298;28;20421;-64
2022/02/01 05:43:23;;;;;;;8.77;4.50;;;6.90;99.90;;;;;;5052267;28;20423;-64
2022/02/01 05:45:50;;;;;;;8.90;4.53;;;7.10;99.90;;;;;;5053318;28;20179;-64
2022/02/01 05:48:17;;;;;;;8.47;4.47;;;7.00;99.90;;;;;;5060915;28;20421;-64
2022/02/01 05:50:43;;;;;;;7.50;4.30;;;7.20;99.90;;;;;;5073181;28;20392;-64
2022/02/01 05:53:09;;;;;;;9.90;5.30;;;7.00;99.90;;;;;;5071700;28;20421;-69
2022/02/01 05:55:35;;;;;;;8.93;3.90;;;7.00;99.90;;;;;;5073175;28;20773;-64
2022/02/01 05:58:02;;;;;;;6.37;4.33;;;7.00;99.90;;;;;;5072879;28;20410;-64
2022/02/01 06:00:28;;;;;;;11.30;4.30;;;7.00;99.90;;;;;;5067291;28;20416;-65
2022/02/01 06:02:54;;;;;;;9.53;4.50;;;7.10;99.90;;;;;;5061739;28;20438;-66
2022/02/01 06:05:20;;;;;;;9.30;3.80;;;7.00;99.90;;;;;;5051507;28;20784;-64
2022/02/01 06:07:46;;;;;;;6.87;4.80;;;7.00;99.90;;;;;;5055756;28;20648;-64
2022/02/01 06:10:12;;;;;;;7.70;4.20;;;6.70;99.90;;;;;;5052160;28;20176;-64
2022/02/01 06:12:43;;;;;;;10.60;5.47;;;7.10;99.90;;;;;;5052783;28;20414;-64
2022/02/01 06:15:09;;;;;;;7.10;4.60;;;7.10;99.90;;;;;;5051278;28;20966;-64
2022/02/01 06:17:35;;;;;;;9.27;3.83;;;7.10;99.90;;;;;;5054139;28;20508;-64
2022/02/01 06:20:02;;;;;;;11.67;5.10;;;7.10;99.90;;;;;;5059747;28;20425;-64
2022/02/01 06:22:28;;;;;;;8.87;3.83;;;6.70;99.90;;;;;;5036480;28;20473;-64
2022/02/01 06:24:54;;;;;;;8.47;4.17;;;7.20;99.90;;;;;;5020333;28;20435;-64
2022/02/01 06:27:20;;;;;;;4.03;3.10;;;7.10;99.90;;;;;;5052208;28;20464;-64
2022/02/01 06:29:46;;;;;;;8.80;4.00;;;7.20;99.90;;;;;;5052861;28;20399;-64
2022/02/01 06:32:11;;;;;;;7.30;4.33;;;7.20;99.90;;;;;;5042289;28;20185;-64
2022/02/01 06:34:37;;;;;;;9.83;4.37;;;7.20;99.90;;;;;;5038302;28;20222;-64
2022/02/01 06:37:03;;;;;;;6.80;4.63;;;7.20;99.90;;;;;;5043630;28;20187;-64
2022/02/01 06:39:29;;;;;;;10.27;4.60;;;7.20;99.90;;;;;;5047203;28;20765;-63
2022/02/01 06:41:55;;;;;;;5.20;4.63;;;7.10;99.90;;;;;;5034977;28;20598;-64
2022/02/01 06:44:22;;;;;;;13.03;5.90;;;7.10;99.90;;;;;;5033704;28;20652;-64
2022/02/01 06:46:47;;;;;;;9.17;5.40;;;7.20;99.90;;;;;;5044621;28;20513;-64
2022/02/01 06:49:13;;;;;;;8.30;4.90;;;7.20;99.90;;;;;;5016904;28;20557;-65
2022/02/01 06:51:39;;;;;;;10.60;5.23;;;7.20;99.90;;;;;;5051695;28;20653;-64
2022/02/01 06:54:06;;;;;;;7.27;5.47;;;7.20;99.90;;;;;;5030639;28;20223;-64
2022/02/01 06:56:33;;;;;;;9.87;5.83;;;7.10;99.90;;;;;;5014592;28;20847;-64
2022/02/01 06:59:04;;;;;;;10.33;6.10;;;6.60;99.90;;;;;;5031453;28;20431;-64
2022/02/01 07:01:32;;;;;;;11.43;7.63;;;7.00;99.90;;;;;;5033953;28;21072;-64
2022/02/01 07:03:58;;;;;;;10.57;6.03;;;7.00;99.90;;;;;;5034024;28;20492;-65
2022/02/01 07:06:25;;;;;;;7.73;5.70;;;7.00;99.90;;;;;;5045160;28;20439;-64
2022/02/01 07:08:52;;;;;;;6.97;5.43;;;7.00;99.90;;;;;;5044741;28;20538;-65
2022/02/01 07:11:19;;;;;;;8.10;6.63;;;6.80;99.90;;;;;;5047674;28;20422;-66
2022/02/01 07:13:47;;;;;;;11.70;6.20;;;7.00;99.90;;;;;;5038025;28;20815;-65
2022/02/01 07:16:13;;;;;;;12.00;8.27;;;7.10;99.90;;;;;;5036050;28;20427;-66
2022/02/01 07:18:39;;;;;;;10.77;6.27;;;7.00;99.90;;;;;;5018789;28;20465;-65
2022/02/01 07:21:05;;;;;;;8.37;7.43;;;6.60;99.90;;;;;;5036071;28;20450;-65
2022/02/01 07:23:32;;;;;;;6.50;5.37;;;7.20;99.90;;;;;;5035935;28;20515;-71
2022/02/01 07:25:58;;;;;;;8.90;6.10;;;7.20;99.90;;;;;;5036200;28;20825;-66
2022/02/01 07:28:27;;;;;;;8.10;5.80;;;7.10;99.90;;;;;;5036644;28;20419;-66
2022/02/01 07:30:54;;;;;;;7.93;5.70;;;7.10;99.90;;;;;;5036172;28;20752;-66
2022/02/01 07:33:20;;;;;;;13.47;5.87;;;7.10;99.90;;;;;;5038767;28;20601;-67
2022/02/01 07:35:47;;;;;;;6.03;5.50;;;7.10;99.90;;;;;;5036086;28;20419;-66
2022/02/01 07:38:18;;;;;;;6.60;4.80;;;7.10;99.90;;;;;;5037661;28;20506;-70
2022/02/01 07:40:44;;;;;;;10.97;6.80;;;6.80;99.90;;;;;;5044848;28;20430;-67
2022/02/01 07:43:10;;;;;;;11.67;6.60;;;7.20;99.90;;;;;;5046485;28;20453;-72
2022/02/01 07:45:38;;;;;;;11.60;7.60;;;7.60;99.90;;;;;;5054736;28;20915;-67
2022/02/01 07:48:04;;;;;;;11.93;6.93;;;8.20;99.90;;;;;;5055629;28;20424;-68
2022/02/01 07:50:33;;;;;;;9.07;7.90;;;8.70;99.90;;;;;;5054480;28;20422;-68
2022/02/01 07:53:00;;;;;;;6.97;6.20;;;9.00;99.90;;;;;;5045513;28;20186;-67
2022/02/01 07:55:26;;;;;;;9.13;7.60;;;9.50;99.90;;;;;;5034169;28;20469;-68
2022/02/01 07:57:52;;;;;;;9.73;6.20;;;9.90;99.90;;;;;;5035335;28;20449;-68
2022/02/01 08:00:18;;;;;;;12.90;7.43;;;10.30;99.90;;;;;;5034367;28;20463;-68
2022/02/01 08:02:43;;;;;;;7.47;6.03;;;10.60;99.90;;;;;;5035551;28;20182;-67
2022/02/01 08:05:11;;;;;;;6.60;5.83;;;10.80;98.60;;;;;;5035786;28;20171;-68
2022/02/01 08:07:37;;;;;;;7.97;6.60;;;10.90;97.20;;;;;;5035557;28;20418;-67
2022/02/01 08:10:07;;;;;;;8.87;6.37;;;11.10;97.80;;;;;;5017681;28;20749;-67
2022/02/01 08:20:12;;;;;;;8.33;6.00;;;11.60;95.20;;;;;;5034870;28;20421;-67
2022/02/01 08:23:00;;;;;;;11.50;5.80;;;11.70;96.40;;;;;;5037132;28;20230;-68
2022/02/01 08:25:25;;;;;;;9.33;6.57;;;11.70;96.10;;;;;;5054430;28;20427;-68
2022/02/01 08:27:55;;;;;;;8.53;5.97;;;11.90;95.20;;;;;;5054972;28;20490;-67
2022/02/01 08:30:22;;;;;;;11.73;6.50;;;11.90;94.40;;;;;;5054097;28;20432;-68
2022/02/01 08:32:48;;;;;;;10.83;7.40;;;11.90;94.50;;;;;;5052556;28;20412;-68
2022/02/01 08:35:14;;;;;;;8.03;6.50;;;11.70;94.40;;;;;;5033980;28;21023;-67
2022/02/01 08:37:40;;;;;;;12.13;6.20;;;11.80;96.50;;;;;;5053927;28;20526;-66
2022/02/01 08:40:06;;;;;;;7.87;6.27;;;11.40;93.20;;;;;;5050967;28;20499;-66
2022/02/01 08:42:32;;;;;;;10.07;7.90;;;11.00;94.00;;;;;;5016509;28;20219;-68
2022/02/01 08:44:57;;;;;;;14.50;9.77;;;10.40;94.90;;;;;;5036464;28;20934;-66
2022/02/01 08:47:23;;;;;;;10.10;7.30;;;10.00;96.40;;;;;;5020028;28;20190;-66
2022/02/01 08:49:49;;;;;;;7.53;6.27;;;9.60;97.90;;;;;;5017134;28;20568;-66
2022/02/01 08:52:26;;;;;;;10.00;6.53;;;9.30;98.90;;;;;;5037315;28;20175;-70
2022/02/01 08:54:53;;;;;;;6.37;5.77;;;9.10;99.90;;;;;;5052986;28;20197;-65
2022/02/01 08:57:22;;;;;;;9.37;6.50;;;8.70;99.90;;;;;;5039833;28;20416;-66
2022/02/01 09:00:03;;;;;;;6.60;5.97;;;8.60;99.90;;;;;;5053599;28;20503;-65
2022/02/01 09:02:30;;;;;;;5.80;5.30;;;8.40;99.90;;;;;;5035089;28;20424;-66
2022/02/01 09:04:57;;;;;;;6.53;5.90;;;8.10;99.90;;;;;;5036840;28;20829;-65
2022/02/01 09:07:23;;;;;;;5.50;5.00;;;8.00;99.90;;;;;;5037811;28;20457;-65
2022/02/01 09:09:49;;;;;;;6.17;5.57;;;7.90;99.90;;;;;;5034223;28;20432;-66
2022/02/01 09:12:17;;;;;;;6.20;5.30;;;7.90;99.90;;;;;;5034470;28;20424;-65
2022/02/01 09:14:44;;;;;;;5.50;5.00;;;7.80;99.90;;;;;;5033904;28;20924;-66
2022/02/01 09:17:10;;;;;;;6.47;5.87;;;7.70;99.90;;;;;;5033650;28;20801;-65
2022/02/01 09:19:36;;;;;;;5.67;5.13;;;7.70;99.90;;;;;;5032987;28;20883;-65
2022/02/01 09:22:02;;;;;;;4.70;4.40;;;7.60;99.90;;;;;;5033903;28;20543;-65
2022/02/01 09:24:31;;;;;;;5.67;5.27;;;7.70;99.90;;;;;;5033101;28;20569;-65
2022/02/01 09:26:57;;;;;;;5.27;4.87;;;7.10;99.90;;;;;;5033932;28;20796;-65
2022/02/01 09:29:24;;;;;;;6.10;5.37;;;7.50;99.90;;;;;;5032530;28;20416;-65
2022/02/01 09:31:51;;;;;;;5.07;4.37;;;7.40;99.90;;;;;;5033834;28;20468;-65
2022/02/01 09:34:19;;;;;;;5.17;4.87;;;7.50;99.90;;;;;;5033113;28;20509;-69
2022/02/01 09:36:45;;;;;;;4.93;4.53;;;7.50;99.90;;;;;;5015852;28;20416;-65
2022/02/01 09:39:11;;;;;;;4.53;4.17;;;7.50;99.90;;;;;;5033481;28;20441;-65
2022/02/01 09:41:38;;;;;;;4.73;4.43;;;7.50;99.90;;;;;;5033162;28;20735;-65
2022/02/01 09:44:04;;;;;;;4.27;3.97;;;7.40;99.90;;;;;;5033701;28;20184;-65
2022/02/01 09:46:30;;;;;;;4.93;4.70;;;7.40;99.90;;;;;;5033045;28;20506;-65
2022/02/01 09:48:57;;;;;;;4.77;4.30;;;7.00;99.90;;;;;;5033608;28;20412;-65
2022/02/01 09:51:23;;;;;;;4.33;4.13;;;7.30;99.90;;;;;;5032940;28;20410;-65
2022/02/01 09:53:48;;;;;;;4.90;4.40;;;7.30;99.90;;;;;;5033631;28;20497;-65
2022/02/01 09:56:15;;;;;;;4.23;3.97;;;7.30;99.90;;;;;;5033393;28;20907;-65
2022/02/01 09:58:41;;;;;;;3.97;3.67;;;7.40;99.90;;;;;;5032736;28;20215;-65
2022/02/01 10:01:22;;;;;;;4.07;3.80;;;7.40;99.90;;;;;;5033453;28;20495;-65
2022/02/01 10:03:59;;;;;;;3.93;3.63;;;7.40;99.90;;;;;;5033056;28;20390;-65
2022/02/01 10:06:29;;;;;;;3.50;3.30;;;7.30;99.90;;;;;;5032560;28;20392;-65
2022/02/01 10:09:04;;;;;;;3.40;3.10;;;7.30;99.90;;;;;;5033017;28;20900;-65
2022/02/01 10:11:43;;;;;;;4.30;3.90;;;7.40;99.90;;;;;;5032619;28;20411;-65
2022/02/01 10:14:14;;;;;;;3.60;3.40;;;7.40;99.90;;;;;;5033481;28;20843;-65
2022/02/01 10:16:49;;;;;;;3.80;3.60;;;7.50;99.90;;;;;;5032265;28;20879;-65
2022/02/01 10:19:17;;;;;;;3.20;3.00;;;7.40;99.90;;;;;;5032963;28;20735;-65
2022/02/01 10:21:57;;;;;;;4.13;3.67;;;7.40;99.90;;;;;;5033361;28;20532;-65
2022/02/01 10:24:38;;;;;;;3.80;3.50;;;7.40;99.90;;;;;;5052342;28;20885;-65
2022/02/01 10:27:08;;;;;;;4.40;4.10;;;7.40;99.90;;;;;;5053000;28;20403;-65
2022/02/01 10:29:35;;;;;;;4.37;4.07;;;7.40;99.90;;;;;;5052452;28;20399;-65
2022/02/01 10:32:20;;;;;;;3.90;3.70;;;7.50;99.90;;;;;;5052459;28;20967;-65
2022/02/01 10:34:48;;;;;;;3.93;3.63;;;7.40;99.90;;;;;;5052979;28;20442;-65
2022/02/01 10:37:25;;;;;;;3.70;3.50;;;7.40;99.90;;;;;;5052652;28;20432;-65
2022/02/01 10:40:02;;;;;;;4.53;4.03;;;7.40;99.90;;;;;;5052053;28;20497;-65
2022/02/01 10:42:28;;;;;;;4.53;4.23;;;7.50;99.90;;;;;;5052337;28;20405;-65
2022/02/01 10:44:56;;;;;;;3.83;3.57;;;7.60;99.90;;;;;;5052688;28;20406;-65
2022/02/01 10:47:38;;;;;;;4.83;4.50;;;7.60;99.90;;;;;;5052056;28;20197;-66
2022/02/01 10:50:08;;;;;;;4.40;4.10;;;7.70;99.90;;;;;;5052543;28;20460;-65
2022/02/01 10:52:45;;;;;;;4.57;4.17;;;7.80;99.90;;;;;;5051855;28;20460;-65
2022/02/01 10:55:12;;;;;;;4.07;3.77;;;7.80;99.90;;;;;;5052511;28;20447;-65
2022/02/01 10:57:39;;;;;;;4.17;3.97;;;7.80;99.90;;;;;;5051884;28;20414;-65
2022/02/01 11:00:07;;;;;;;4.50;4.30;;;7.60;99.90;;;;;;5052124;28;20759;-65
2022/02/01 11:02:41;;;;;;;4.77;4.50;;;7.60;99.90;;;;;;5051831;28;20885;-65
2022/02/01 11:05:09;;;;;;;5.03;4.73;;;7.70;99.90;;;;;;5052504;28;20392;-65
2022/02/01 11:07:34;;;;;;;5.10;4.70;;;7.70;99.90;;;;;;5051795;28;20455;-65
2022/02/01 11:10:00;;;;;;;5.97;5.43;;;7.60;99.90;;;;;;5052733;28;20443;-65
2022/02/01 11:12:34;;;;;;;4.83;4.43;;;7.60;99.90;;;;;;5051701;28;20211;-65
2022/02/01 11:14:59;;;;;;;4.73;4.43;;;7.50;99.90;;;;;;5052316;28;20201;-65
2022/02/01 11:17:25;;;;;;;5.10;4.80;;;7.70;99.90;;;;;;5051651;28;20412;-65
2022/02/01 11:19:58;;;;;;;4.23;3.93;;;7.60;99.90;;;;;;5052397;28;20166;-65
2022/02/01 11:22:28;;;;;;;4.80;4.53;;;7.60;99.90;;;;;;5035042;28;20797;-68
2022/02/01 11:25:26;;;;;;;6.20;5.90;;;7.60;99.90;;;;;;5032535;28;20412;-65
2022/02/01 11:28:21;;;;;;;4.13;3.93;;;7.70;99.90;;;;;;5032293;28;20405;-65
2022/02/01 11:30:52;;;;;;;4.63;4.33;;;7.70;99.90;;;;;;5031078;28;20466;-65
2022/02/01 11:33:18;;;;;;;5.13;4.73;;;7.70;99.90;;;;;;5014118;28;20398;-65
2022/02/01 11:35:44;;;;;;;4.73;4.33;;;7.60;99.90;;;;;;5030789;28;21055;-65
2022/02/01 11:38:20;;;;;;;6.57;5.97;;;7.60;99.90;;;;;;5013807;28;20424;-65
2022/02/01 11:40:49;;;;;;;4.07;3.77;;;7.70;99.90;;;;;;5031100;28;20781;-65
2022/02/01 11:43:23;;;;;;;4.10;3.80;;;7.70;99.90;;;;;;5031844;28;20968;-65
2022/02/01 11:45:57;;;;;;;4.77;4.47;;;7.70;99.90;;;;;;5031754;28;20378;-65
2022/02/01 11:48:25;;;;;;;7.37;6.87;;;7.90;99.90;;;;;;5032135;28;20496;-65
2022/02/01 11:50:59;;;;;;;9.53;4.50;;;7.80;99.90;;;;;;5032183;28;20904;-65
2022/02/01 11:53:29;;;;;;;6.07;5.67;;;7.80;99.90;;;;;;5017588;28;20885;-65
2022/02/01 11:55:56;;;;;;;3.40;3.20;;;7.80;99.90;;;;;;5035788;28;20412;-65
2022/02/01 11:58:35;;;;;;;7.20;6.57;;;7.70;99.90;;;;;;5035684;28;20757;-65
2022/02/01 12:01:07;;;;;;;4.80;4.50;;;7.70;99.90;;;;;;5035855;28;20412;-65
2022/02/01 12:03:39;;;;;;;3.40;3.10;;;7.80;99.90;;;;;;5017456;28;20481;-65
2022/02/01 12:06:09;;;;;;;3.80;3.50;;;7.80;99.90;;;;;;5035331;28;20452;-65
2022/02/01 12:08:43;;;;;;;4.00;3.80;;;7.80;99.90;;;;;;5034906;28;20414;-65
2022/02/01 12:11:09;;;;;;;4.20;3.90;;;7.90;99.90;;;;;;5035268;28;20402;-65
2022/02/01 12:13:35;;;;;;;3.70;3.50;;;7.90;99.90;;;;;;5034841;28;20417;-65
2022/02/01 12:16:07;;;;;;;3.93;3.73;;;7.90;99.90;;;;;;5035072;28;20432;-65
2022/02/01 12:18:52;;;;;;;3.37;3.17;;;7.90;99.90;;;;;;5017054;28;20451;-65
2022/02/01 12:21:32;;;;;;;3.33;2.40;;;8.10;99.90;;;;;;5034984;28;20480;-65
2022/02/01 12:24:00;;;;;;;3.83;3.63;;;8.00;99.90;;;;;;5035266;28;20475;-65
2022/02/01 12:26:31;;;;;;;3.37;3.10;;;8.10;99.90;;;;;;5035497;28;20416;-65
2022/02/01 12:29:00;;;;;;;3.50;3.30;;;8.00;99.90;;;;;;5035583;28;20409;-65
2022/02/01 12:31:30;;;;;;;3.50;3.00;;;8.00;99.90;;;;;;5035008;28;20458;-65
2022/02/01 12:33:58;;;;;;;2.90;2.70;;;8.00;99.90;;;;;;5034978;28;20791;-65
2022/02/01 12:36:28;;;;;;;2.50;2.40;;;8.00;99.90;;;;;;5034682;28;20909;-65
2022/02/01 12:39:22;;;;;;;2.60;2.50;;;8.00;99.90;;;;;;5035116;28;20406;-65
2022/02/01 12:42:06;;;;;;;2.80;2.60;;;8.00;99.90;;;;;;5034382;28;20947;-65
2022/02/01 12:47:04;;;;;;;2.50;2.40;;;8.10;99.90;;;;;;5034516;28;20889;-65
2022/02/01 12:49:43;;;;;;;2.80;2.70;;;8.00;99.90;;;;;;5034166;28;20469;-65
2022/02/01 12:52:19;;;;;;;1.70;1.60;;;8.10;99.90;;;;;;5034708;28;20412;-65
2022/02/01 12:54:45;;;;;;;2.10;2.00;;;7.70;99.90;;;;;;5034033;28;20479;-65
2022/02/01 12:57:13;;;;;;;3.17;3.07;;;8.10;99.90;;;;;;5034608;28;20417;-65
2022/02/01 12:59:47;;;;;;;3.50;3.40;;;8.20;99.90;;;;;;5034222;28;20445;-65
2022/02/01 13:02:19;;;;;;;4.33;2.17;;;8.20;99.90;;;;;;5034789;28;20409;-65
2022/02/01 13:04:51;;;;;;;3.60;3.50;;;8.30;99.90;;;;;;5015028;28;20758;-65
2022/02/01 13:07:44;;;;;;;3.30;3.20;;;8.40;99.90;;;;;;5016092;28;20773;-65
2022/02/01 13:15:53;;;;;;;3.00;2.90;;;8.40;99.90;;;;;;5033784;28;20409;-65
2022/02/01 13:20:59;;;;;;;3.57;3.47;;;8.40;99.90;;;;;;5033591;28;20468;-65
2022/02/01 13:23:37;;;;;;;1.60;1.50;;;8.40;99.90;;;;;;5034239;28;20424;-65
2022/02/01 13:26:18;;;;;;;1.17;1.13;;;8.50;99.90;;;;;;5034120;28;20804;-65
2022/02/01 13:29:08;;;;;;;2.60;2.50;;;8.40;99.90;;;;;;5033377;28;20413;-65
2022/02/01 13:31:38;;;;;;;4.00;3.90;;;8.50;99.90;;;;;;5033513;28;20404;-65
2022/02/01 13:34:06;;;;;;;1.57;1.47;;;8.50;99.90;;;;;;5033661;28;20999;-65
2022/02/01 13:36:46;;;;;;;3.63;3.53;;;8.60;99.90;;;;;;5032965;28;20785;-66
2022/02/01 13:39:34;;;;;;;3.60;3.50;;;8.60;99.90;;;;;;5033708;28;20758;-65
2022/02/01 13:42:06;;;;;;;2.03;1.93;;;8.60;99.90;;;;;;5033779;28;20893;-65
2022/02/01 13:44:32;;;;;;;2.80;2.60;;;8.60;99.90;;;;;;5033102;28;20801;-66
2022/02/01 13:47:10;;;;;;;3.03;2.93;;;8.60;99.90;;;;;;5033249;28;20777;-65
2022/02/01 13:49:37;;;;;;;2.30;2.20;;;8.60;99.90;;;;;;5032771;28;20424;-65
2022/02/01 13:52:05;;;;;;;4.50;4.40;;;8.70;99.90;;;;;;5033285;28;20433;-65
2022/02/01 13:54:40;;;;;;;2.00;2.00;;;8.70;99.90;;;;;;5033192;28;20957;-65
2022/02/01 13:57:18;;;;;;;2.57;2.47;;;8.80;99.90;;;;;;5033530;28;20439;-65
2022/02/01 13:59:44;;;;;;;2.87;2.80;;;8.70;99.90;;;;;;5032620;28;20760;-66
2022/02/01 14:02:19;;;;;;;1.60;1.50;;;8.70;99.90;;;;;;5033432;28;20788;-65
2022/02/01 14:04:54;;;;;;;2.70;2.60;;;8.70;99.90;;;;;;5032805;28;20421;-65
2022/02/01 14:07:39;;;;;;;4.00;3.90;;;8.80;99.90;;;;;;5033432;28;20466;-65
2022/02/01 14:32:01;;;;;;;2.50;2.40;;;8.80;99.90;;;;;;5015550;28;20808;-65
2022/02/01 14:34:30;;;;;;;2.83;2.60;;;8.80;99.90;;;;;;5032540;28;20859;-65
2022/02/01 14:37:00;;;;;;;2.60;2.50;;;8.80;99.90;;;;;;5032256;28;20429;-65
2022/02/01 14:44:47;;;;;;;3.13;3.03;;;8.90;99.90;;;;;;5043272;28;20416;-65
2022/02/01 14:47:21;;;;;;;3.40;3.20;;;8.90;99.90;;;;;;5016968;28;20484;-65
2022/02/01 14:49:49;;;;;;;5.47;5.10;;;8.90;99.90;;;;;;5048085;28;20732;-65
2022/02/01 14:52:17;;;;;;;3.90;3.60;;;8.90;99.90;;;;;;5033648;28;20424;-64
2022/02/01 14:54:49;;;;;;;4.10;3.80;;;8.90;99.90;;;;;;5031409;28;20464;-64
2022/02/01 15:13:50;;;;;;;9.50;8.60;;;9.10;99.90;;;;;;5015009;28;20914;-64
2022/02/01 15:16:16;;;;;;;9.60;8.70;;;9.10;99.90;;;;;;5040941;28;20424;-64
2022/02/01 15:18:44;;;;;;;11.50;9.60;;;9.10;99.90;;;;;;5036046;28;20421;-67
2022/02/01 15:21:11;;;;;;;9.50;8.53;;;9.20;99.90;;;;;;5046844;28;20500;-65
2022/02/01 15:23:37;;;;;;;12.00;10.80;;;9.30;99.90;;;;;;5047208;28;20438;-69
2022/02/01 15:26:04;;;;;;;10.67;9.27;;;9.20;99.90;;;;;;5038143;28;20959;-65
2022/02/01 15:28:31;;;;;;;12.57;11.27;;;9.30;99.90;;;;;;5035765;28;20174;-65